Time;durP1;ratioP1;P1;durP2;ratioP2;P2;SDS_P1;SDS_P2;PMS_P1;PMS_P2;Temp;Humidity;BMP_temperature;BMP_pressure;BME280_temperature;BME280_humidity;BME280_pressure;Samples;Min_cycle;Max_cycle;Signal;HPM_P1;HPM_P2
2022/07/11 00:02:13;;;;;;;;;;;18.60;99.90;;;;;;5078975;28;19985;-81
2022/07/11 00:04:42;;;;;;;;;;;18.50;99.90;;;;;;5095800;28;20405;-81
2022/07/11 00:07:09;;;;;;;;;;;18.40;99.90;;;;;;5099409;28;19927;-81
2022/07/11 00:09:36;;;;;;;;;;;18.30;99.90;;;;;;5094867;28;19920;-81
2022/07/11 00:12:03;;;;;;;;;;;18.20;99.90;;;;;;5095482;28;19928;-82
2022/07/11 00:14:32;;;;;;;;;;;18.00;99.90;;;;;;5097441;28;19924;-83
2022/07/11 00:16:59;;;;;;;;;;;17.90;99.90;;;;;;5089609;28;19951;-82
2022/07/11 00:19:26;;;;;;;;;;;17.80;99.90;;;;;;5096708;28;20340;-83
2022/07/11 00:21:53;;;;;;;;;;;17.70;99.90;;;;;;5083401;28;19954;-82
2022/07/11 00:24:21;;;;;;;;;;;17.70;99.90;;;;;;5091958;28;19924;-81
2022/07/11 00:26:48;;;;;;;;;;;17.60;99.90;;;;;;5077200;28;19920;-81
2022/07/11 00:29:16;;;;;;;;;;;17.50;99.90;;;;;;5086116;28;19996;-82
2022/07/11 00:31:44;;;;;;;;;;;17.40;99.90;;;;;;5086500;28;19920;-82
2022/07/11 00:34:11;;;;;;;;;;;17.30;99.90;;;;;;5083718;28;19939;-81
2022/07/11 00:36:38;;;;;;;;;;;17.20;99.90;;;;;;5087568;28;19931;-81
2022/07/11 00:39:05;;;;;;;;;;;17.10;99.90;;;;;;5087289;28;19920;-82
2022/07/11 00:41:33;;;;;;;;;;;17.00;99.90;;;;;;5095274;28;19956;-80
2022/07/11 00:44:01;;;;;;;;;;;16.90;99.90;;;;;;5092584;28;19920;-80
2022/07/11 00:46:29;;;;;;;;;;;16.80;99.90;;;;;;5086873;28;19920;-83
2022/07/11 00:48:58;;;;;;;;;;;16.80;99.90;;;;;;5082642;28;20001;-82
2022/07/11 00:51:26;;;;;;;;;;;16.70;99.90;;;;;;5089456;28;20015;-82
2022/07/11 00:53:54;;;;;;;;;;;16.60;99.90;;;;;;5080238;28;19951;-83
2022/07/11 00:56:21;;;;;;;;;;;16.60;99.90;;;;;;5094834;28;21772;-83
2022/07/11 00:58:48;;;;;;;;;;;16.50;99.90;;;;;;5098792;28;19920;-83
2022/07/11 01:01:15;;;;;;;;;;;16.50;99.90;;;;;;5082582;28;19932;-83
2022/07/11 01:03:42;;;;;;;;;;;16.40;99.90;;;;;;5083286;28;19931;-83
2022/07/11 01:06:13;;;;;;;;;;;16.40;99.90;;;;;;5090152;28;19924;-83
2022/07/11 01:08:44;;;;;;;;;;;16.30;99.90;;;;;;5098050;28;20436;-84
2022/07/11 01:11:15;;;;;;;;;;;16.30;99.90;;;;;;5087153;28;19990;-81
2022/07/11 01:13:42;;;;;;;;;;;15.50;99.90;;;;;;5093657;28;19938;-83
2022/07/11 01:16:13;;;;;;;;;;;16.20;99.90;;;;;;5088660;28;20007;-79
2022/07/11 01:18:44;;;;;;;;;;;16.10;99.90;;;;;;5077333;28;20306;-79
2022/07/11 01:21:18;;;;;;;;;;;16.10;99.90;;;;;;5084865;28;20379;-79
2022/07/11 01:23:50;;;;;;;;;;;16.20;99.90;;;;;;5073360;28;19996;-78
2022/07/11 01:26:20;;;;;;;;;;;16.20;99.90;;;;;;5094798;28;19920;-80
2022/07/11 01:28:47;;;;;;;;;;;18.40;99.90;;;;;;5077821;28;19995;-80
2022/07/11 01:31:14;;;;;;;;;;;16.30;99.90;;;;;;5081561;28;19920;-79
2022/07/11 01:33:41;;;;;;;;;;;16.30;99.90;;;;;;5079106;28;19927;-82
2022/07/11 01:36:08;;;;;;;;;;;16.40;99.90;;;;;;5092258;28;20037;-83
2022/07/11 01:38:39;;;;;;;;;;;;;;;;;;5091712;28;19920;-77
2022/07/11 01:41:07;;;;;;;;;;;16.40;99.90;;;;;;5089169;28;19977;-77
2022/07/11 01:43:35;;;;;;;;;;;16.50;99.90;;;;;;5069736;28;19925;-77
2022/07/11 01:46:02;;;;;;;;;;;16.50;99.90;;;;;;5088473;28;19924;-76
2022/07/11 01:48:29;;;;;;;;;;;16.50;99.90;;;;;;5087338;28;19927;-76
2022/07/11 01:50:56;;;;;;;;;;;16.50;99.90;;;;;;5088649;28;19928;-77
2022/07/11 01:53:23;;;;;;;;;;;16.60;99.90;;;;;;5079049;28;19935;-76
2022/07/11 01:55:50;;;;;;;;;;;16.60;99.90;;;;;;5088752;28;19920;-76
2022/07/11 01:58:18;;;;;;;;;;;16.70;99.90;;;;;;5088956;28;20025;-75
2022/07/11 02:00:45;;;;;;;;;;;16.70;99.90;;;;;;5084951;28;19979;-80
2022/07/11 02:03:12;;;;;;;;;;;16.70;99.90;;;;;;5080084;28;19920;-80
2022/07/11 02:05:40;;;;;;;;;;;16.80;99.90;;;;;;5081831;28;19948;-80
2022/07/11 02:08:13;;;;;;;;;;;16.90;99.90;;;;;;5085033;28;20027;-79
2022/07/11 02:10:45;;;;;;;;;;;16.90;99.90;;;;;;5087198;28;19927;-82
2022/07/11 02:13:12;;;;;;;;;;;16.90;99.90;;;;;;5092198;28;19935;-81
2022/07/11 02:15:41;;;;;;;;;;;17.00;99.90;;;;;;5107779;27;19928;-81
2022/07/11 02:18:08;;;;;;;;;;;17.00;99.90;;;;;;5090375;28;19920;-80
2022/07/11 02:20:35;;;;;;;;;;;17.10;99.90;;;;;;5070357;28;20407;-77
2022/07/11 02:23:03;;;;;;;;;;;17.10;99.90;;;;;;5088554;28;20485;-81
2022/07/11 02:25:30;;;;;;;;;;;17.10;99.90;;;;;;5081762;28;20383;-80
2022/07/11 02:27:57;;;;;;;;;;;17.20;99.90;;;;;;5089183;28;20144;-79
2022/07/11 02:30:24;;;;;;;;;;;17.20;99.90;;;;;;5073235;28;19928;-80
2022/07/11 02:32:52;;;;;;;;;;;17.20;99.90;;;;;;5085312;28;19920;-80
2022/07/11 02:35:19;;;;;;;;;;;17.30;99.90;;;;;;5091307;28;19992;-80
2022/07/11 02:37:46;;;;;;;;;;;17.30;99.90;;;;;;5095787;28;19927;-80
2022/07/11 02:40:13;;;;;;;;;;;17.30;99.90;;;;;;5117587;28;19924;-80
2022/07/11 02:42:41;;;;;;;;;;;17.40;99.90;;;;;;5092654;28;20045;-81
2022/07/11 02:45:09;;;;;;;;;;;17.40;99.90;;;;;;5088625;28;19955;-80
2022/07/11 02:47:37;;;;;;;;;;;17.40;99.90;;;;;;5089070;28;20205;-80
2022/07/11 02:50:06;;;;;;;;;;;17.40;99.90;;;;;;5091919;28;20533;-80
2022/07/11 02:52:34;;;;;;;;;;;17.40;99.90;;;;;;5085774;28;19924;-80
2022/07/11 02:55:01;;;;;;;;;;;17.50;99.90;;;;;;5088336;28;19943;-77
2022/07/11 02:57:28;;;;;;;;;;;17.50;99.90;;;;;;5121625;28;19920;-77
2022/07/11 02:59:55;;;;;;;;;;;17.50;99.90;;;;;;5082157;28;19920;-84
2022/07/11 03:02:22;;;;;;;;;;;17.50;99.90;;;;;;5091570;28;19927;-83
2022/07/11 03:04:49;;;;;;;;;;;17.50;99.90;;;;;;5086512;28;20022;-82
2022/07/11 03:07:18;;;;;;;;;;;17.60;99.90;;;;;;5087781;28;20005;-83
2022/07/11 03:09:45;;;;;;;;;;;17.60;99.90;;;;;;5083892;28;19947;-82
2022/07/11 03:12:12;;;;;;;;;;;17.60;99.90;;;;;;5079404;28;19931;-83
2022/07/11 03:14:39;;;;;;;;;;;17.60;99.90;;;;;;5089831;28;19924;-84
2022/07/11 03:17:05;;;;;;;;;;;17.60;99.90;;;;;;5125810;28;19923;-78
2022/07/11 03:19:32;;;;;;;;;;;17.60;99.90;;;;;;5091440;28;19931;-78
2022/07/11 03:21:59;;;;;;;;;;;17.60;99.90;;;;;;5091941;28;20423;-78
2022/07/11 03:24:28;;;;;;;;;;;17.60;99.90;;;;;;5078595;28;19925;-78
2022/07/11 03:26:55;;;;;;;;;;;17.60;99.90;;;;;;5092946;28;19977;-78
2022/07/11 03:29:22;;;;;;;;;;;17.60;99.90;;;;;;5091154;28;20391;-77
2022/07/11 03:31:49;;;;;;;;;;;17.60;99.90;;;;;;5087079;28;20606;-77
2022/07/11 03:34:15;;;;;;;;;;;17.60;99.90;;;;;;5079949;28;19939;-77
2022/07/11 03:36:43;;;;;;;;;;;17.60;99.90;;;;;;5078458;28;19945;-78
2022/07/11 03:39:10;;;;;;;;;;;17.60;99.90;;;;;;5093105;28;19920;-77
2022/07/11 03:41:38;;;;;;;;;;;17.60;99.90;;;;;;5074095;28;19929;-77
2022/07/11 03:44:05;;;;;;;;;;;17.60;99.90;;;;;;5084517;28;19927;-77
2022/07/11 03:46:32;;;;;;;;;;;17.60;99.90;;;;;;5092697;28;19928;-77
2022/07/11 03:48:59;;;;;;;;;;;17.60;99.90;;;;;;5086138;28;20305;-77
2022/07/11 03:51:26;;;;;;;;;;;17.60;99.90;;;;;;5077939;28;19970;-77
2022/07/11 03:53:53;;;;;;;;;;;17.60;99.90;;;;;;5083897;28;19923;-77
2022/07/11 03:56:22;;;;;;;;;;;17.60;99.90;;;;;;5094102;28;19935;-77
2022/07/11 03:58:50;;;;;;;;;;;17.60;99.90;;;;;;5084609;28;19920;-77
2022/07/11 04:01:18;;;;;;;;;;;17.60;99.90;;;;;;5071637;28;19924;-78
2022/07/11 04:03:45;;;;;;;;;;;17.60;99.90;;;;;;5071766;28;19960;-77
2022/07/11 04:06:12;;;;;;;;;;;17.60;99.90;;;;;;5082372;28;19920;-78
2022/07/11 04:08:39;;;;;;;;;;;17.70;99.90;;;;;;5086928;28;19963;-75
2022/07/11 04:11:07;;;;;;;;;;;17.70;99.90;;;;;;5089970;28;19928;-76
2022/07/11 04:13:34;;;;;;;;;;;17.70;99.90;;;;;;5091669;28;19963;-77
2022/07/11 04:16:03;;;;;;;;;;;17.70;99.90;;;;;;5091098;28;19923;-77
2022/07/11 04:18:30;;;;;;;;;;;17.70;99.90;;;;;;5088935;28;20390;-75
2022/07/11 04:20:57;;;;;;;;;;;17.70;99.90;;;;;;5088671;28;20022;-77
2022/07/11 04:23:24;;;;;;;;;;;17.80;99.90;;;;;;5086419;28;19936;-77
2022/07/11 04:25:51;;;;;;;;;;;17.80;99.90;;;;;;5085414;28;19973;-75
2022/07/11 04:28:17;;;;;;;;;;;17.80;99.90;;;;;;5081098;28;19924;-76
2022/07/11 04:30:44;;;;;;;;;;;17.80;99.90;;;;;;5069346;28;19921;-75
2022/07/11 04:33:13;;;;;;;;;;;17.90;99.90;;;;;;5071925;28;19932;-75
2022/07/11 04:35:40;;;;;;;;;;;17.90;99.90;;;;;;5077222;28;19924;-76
2022/07/11 04:38:07;;;;;;;;;;;18.00;99.90;;;;;;5079047;28;19973;-78
2022/07/11 04:40:35;;;;;;;;;;;18.00;99.90;;;;;;5093172;28;20011;-82
2022/07/11 04:43:02;;;;;;;;;;;18.00;99.90;;;;;;5086135;28;19920;-79
2022/07/11 04:45:29;;;;;;;;;;;18.10;99.90;;;;;;5090354;28;20437;-79
2022/07/11 04:47:56;;;;;;;;;;;18.10;99.90;;;;;;5076737;28;20031;-79
2022/07/11 04:50:24;;;;;;;;;;;18.20;99.90;;;;;;5090016;28;20378;-78
2022/07/11 04:52:51;;;;;;;;;;;18.20;99.90;;;;;;5091314;28;19924;-77
2022/07/11 04:55:19;;;;;;;;;;;18.20;99.90;;;;;;5091914;28;19924;-80
2022/07/11 04:57:52;;;;;;;;;;;18.30;99.90;;;;;;5095216;28;19923;-79
2022/07/11 05:00:21;;;;;;;;;;;18.20;99.90;;;;;;5102556;27;20015;-78
2022/07/11 05:02:49;;;;;;;;;;;18.20;99.90;;;;;;5080039;28;20458;-76
2022/07/11 05:05:16;;;;;;;;;;;18.20;99.90;;;;;;5090869;28;20665;-77
2022/07/11 05:07:44;;;;;;;;;;;18.30;99.90;;;;;;5089186;28;19920;-78
2022/07/11 05:10:12;;;;;;;;;;;18.30;99.90;;;;;;5089364;28;19924;-79
2022/07/11 05:12:38;;;;;;;;;;;18.30;99.90;;;;;;5088660;28;20415;-77
2022/07/11 05:15:06;;;;;;;;;;;18.20;99.90;;;;;;5075387;28;19967;-77
2022/07/11 05:17:33;;;;;;;;;;;18.20;99.90;;;;;;5086697;28;19932;-77
2022/07/11 05:20:00;;;;;;;;;;;18.10;99.90;;;;;;5086643;28;19979;-77
2022/07/11 05:22:27;;;;;;;;;;;18.10;99.90;;;;;;5117361;27;20458;-78
2022/07/11 05:24:55;;;;;;;;;;;18.10;99.90;;;;;;5091551;28;20323;-81
2022/07/11 05:27:23;;;;;;;;;;;18.10;99.90;;;;;;5094455;28;19924;-82
2022/07/11 05:29:50;;;;;;;;;;;18.10;99.90;;;;;;5084253;28;19940;-83
2022/07/11 05:32:17;;;;;;;;;;;18.10;99.90;;;;;;5089541;28;19934;-81
2022/07/11 05:34:44;;;;;;;;;;;18.10;99.90;;;;;;5088681;28;20025;-84
2022/07/11 05:37:11;;;;;;;;;;;18.10;99.90;;;;;;5082194;28;19924;-81
2022/07/11 05:39:38;;;;;;;;;;;18.10;99.90;;;;;;5090098;28;19951;-84
2022/07/11 05:42:08;;;;;;;;;;;18.10;99.90;;;;;;5083328;28;19921;-83
2022/07/11 05:44:35;;;;;;;;;;;18.10;99.90;;;;;;5080876;28;19981;-83
2022/07/11 05:47:03;;;;;;;;;;;18.10;99.90;;;;;;5125869;27;19924;-84
2022/07/11 05:49:31;;;;;;;;;;;18.10;99.90;;;;;;5086551;28;20370;-82
2022/07/11 05:51:58;;;;;;;;;;;18.10;99.90;;;;;;5088717;28;19927;-85
2022/07/11 05:54:26;;;;;;;;;;;18.20;99.90;;;;;;5094347;28;19919;-83
2022/07/11 05:56:52;;;;;;;;;;;18.20;99.90;;;;;;5089887;28;19924;-83
2022/07/11 05:59:22;;;;;;;;;;;18.30;99.90;;;;;;5081883;28;19908;-82
2022/07/11 06:01:50;;;;;;;;;;;18.30;99.90;;;;;;5074268;28;19946;-81
2022/07/11 06:04:17;;;;;;;;;;;18.30;99.90;;;;;;5090164;28;19924;-83
2022/07/11 06:06:44;;;;;;;;;;;18.30;99.90;;;;;;5086869;28;19920;-83
2022/07/11 06:09:10;;;;;;;;;;;18.30;99.90;;;;;;5093865;28;19916;-84
2022/07/11 06:11:38;;;;;;;;;;;18.30;99.90;;;;;;5086449;28;19916;-86
2022/07/11 06:14:06;;;;;;;;;;;18.30;99.90;;;;;;5094239;28;19964;-82
2022/07/11 06:16:36;;;;;;;;;;;18.30;99.90;;;;;;5095157;28;19923;-82
2022/07/11 06:19:04;;;;;;;;;;;18.30;99.90;;;;;;5092199;28;20596;-81
2022/07/11 06:21:31;;;;;;;;;;;18.30;99.90;;;;;;5094014;28;20033;-82
2022/07/11 06:24:00;;;;;;;;;;;18.30;99.90;;;;;;5088942;28;20050;-83
2022/07/11 06:26:27;;;;;;;;;;;18.30;99.90;;;;;;5079674;28;19939;-82
2022/07/11 06:28:55;;;;;;;;;;;18.30;99.90;;;;;;5107216;27;19935;-82
2022/07/11 06:31:22;;;;;;;;;;;18.30;99.90;;;;;;5092615;28;19920;-81
2022/07/11 06:33:54;;;;;;;;;;;18.40;99.90;;;;;;5095627;28;19934;-80
2022/07/11 06:36:22;;;;;;;;;;;18.40;99.90;;;;;;5094572;28;19926;-81
2022/07/11 06:38:49;;;;;;;;;;;18.50;99.90;;;;;;5089720;28;20291;-81
2022/07/11 06:41:16;;;;;;;;;;;18.50;99.90;;;;;;5086788;28;19974;-81
2022/07/11 06:43:43;;;;;;;;;;;18.60;99.90;;;;;;5087400;28;19924;-80
2022/07/11 06:46:10;;;;;;;;;;;18.70;99.90;;;;;;5091066;28;21338;-81
2022/07/11 06:48:38;;;;;;;;;;;18.80;99.90;;;;;;5089278;28;20032;-80
2022/07/11 06:51:07;;;;;;;;;;;18.70;99.90;;;;;;5081418;28;19920;-78
2022/07/11 06:53:35;;;;;;;;;;;18.80;99.90;;;;;;5087884;28;19924;-79
2022/07/11 06:56:02;;;;;;;;;;;18.80;99.90;;;;;;5087195;28;19940;-79
2022/07/11 06:58:35;;;;;;;;;;;18.80;99.90;;;;;;5083349;28;19935;-79
2022/07/11 07:01:02;;;;;;;;;;;18.80;99.90;;;;;;5082560;28;19921;-79
2022/07/11 07:03:30;;;;;;;;;;;18.70;99.90;;;;;;5090876;28;19936;-79
2022/07/11 07:05:57;;;;;;;;;;;18.60;99.90;;;;;;5088575;28;19932;-79
2022/07/11 07:08:26;;;;;;;;;;;18.50;99.90;;;;;;5088398;28;19973;-84
2022/07/11 07:10:53;;;;;;;;;;;18.50;99.90;;;;;;5086488;28;19924;-82
2022/07/11 07:13:25;;;;;;;;;;;18.50;99.90;;;;;;5084944;28;19929;-79
2022/07/11 07:15:52;;;;;;;;;;;18.40;99.90;;;;;;5090033;28;20022;-79
2022/07/11 07:18:20;;;;;;;;;;;18.50;99.90;;;;;;5082944;28;20161;-78
2022/07/11 07:20:47;;;;;;;;;;;18.60;99.90;;;;;;5081780;28;19974;-79
2022/07/11 07:23:15;;;;;;;;;;;18.70;99.90;;;;;;5084326;28;19960;-79
2022/07/11 07:25:43;;;;;;;;;;;18.80;99.90;;;;;;5086352;28;19930;-79
2022/07/11 07:28:10;;;;;;;;;;;17.70;99.90;;;;;;5080609;28;19920;-78
2022/07/11 07:30:37;;;;;;;;;;;19.00;99.90;;;;;;5079063;28;19985;-79
2022/07/11 07:33:04;;;;;;;;;;;19.10;99.90;;;;;;5089449;28;19919;-80
2022/07/11 07:35:32;;;;;;;;;;;19.20;99.90;;;;;;5093456;28;19924;-79
2022/07/11 07:38:00;;;;;;;;;;;19.30;99.90;;;;;;5091641;28;19924;-79
2022/07/11 07:40:27;;;;;;;;;;;19.30;99.90;;;;;;5087247;28;19971;-78
2022/07/11 07:42:55;;;;;;;;;;;19.30;99.90;;;;;;5077200;28;20453;-79
2022/07/11 07:45:22;;;;;;;;;;;19.40;99.90;;;;;;5089706;28;19928;-85
2022/07/11 07:47:51;;;;;;;;;;;19.60;99.90;;;;;;5082270;28;20366;-79
2022/07/11 07:50:18;;;;;;;;;;;19.90;99.90;;;;;;5089005;28;19924;-78
2022/07/11 07:52:45;;;;;;;;;;;20.60;99.90;;;;;;5091083;28;19952;-79
2022/07/11 07:55:13;;;;;;;;;;;20.60;99.90;;;;;;5089785;28;19997;-78
2022/07/11 07:57:40;;;;;;;;;;;21.10;99.90;;;;;;5083962;28;20042;-79
2022/07/11 08:02:54;;;;;;;;;;;21.70;99.90;;;;;;5081822;28;20383;-83
2022/07/11 08:05:21;;;;;;;;;;;21.80;99.90;;;;;;5079267;28;19920;-85
2022/07/11 08:07:49;;;;;;;;;;;21.70;99.90;;;;;;5084037;28;19973;-83
2022/07/11 08:10:16;;;;;;;;;;;21.60;99.90;;;;;;5081158;28;19935;-81
2022/07/11 08:12:44;;;;;;;;;;;21.70;99.90;;;;;;5090155;28;19924;-81
2022/07/11 08:15:13;;;;;;;;;;;21.60;99.90;;;;;;5098094;28;19942;-81
2022/07/11 08:17:42;;;;;;;;;;;21.50;99.90;;;;;;5077455;28;20598;-80
2022/07/11 08:20:10;;;;;;;;;;;21.50;99.90;;;;;;5095710;28;19970;-80
2022/07/11 08:22:37;;;;;;;;;;;21.60;99.90;;;;;;5098127;28;19978;-81
2022/07/11 08:25:04;;;;;;;;;;;21.50;99.90;;;;;;5092604;28;20284;-81
2022/07/11 08:27:31;;;;;;;;;;;21.40;99.90;;;;;;5091880;28;19964;-80
2022/07/11 08:29:58;;;;;;;;;;;21.30;99.90;;;;;;5095187;28;19920;-81
2022/07/11 08:32:26;;;;;;;;;;;21.30;99.90;;;;;;5078321;28;20030;-82
2022/07/11 08:34:53;;;;;;;;;;;21.30;99.90;;;;;;5088999;28;19920;-81
2022/07/11 08:37:22;;;;;;;;;;;21.30;99.90;;;;;;5093203;28;19928;-81
2022/07/11 08:39:49;;;;;;;;;;;21.40;99.90;;;;;;5092797;28;19924;-80
2022/07/11 08:42:19;;;;;;;;;;;21.40;99.90;;;;;;5090196;28;19928;-79
2022/07/11 08:44:46;;;;;;;;;;;21.50;99.90;;;;;;5085217;28;19925;-80
2022/07/11 08:47:13;;;;;;;;;;;21.60;99.90;;;;;;5083029;28;19928;-81
2022/07/11 08:49:45;;;;;;;;;;;21.50;99.90;;;;;;5096270;28;19924;-80
2022/07/11 08:52:13;;;;;;;;;;;21.50;99.90;;;;;;5100145;28;19998;-81
2022/07/11 08:54:41;;;;;;;;;;;21.50;99.90;;;;;;5101216;28;20003;-80
2022/07/11 08:57:11;;;;;;;;;;;21.50;99.90;;;;;;5092048;28;19942;-80
2022/07/11 08:59:41;;;;;;;;;;;21.40;99.90;;;;;;5103397;28;19986;-80
2022/07/11 09:02:09;;;;;;;;;;;21.30;99.90;;;;;;5094050;28;20361;-80
2022/07/11 09:04:36;;;;;;;;;;;21.30;99.90;;;;;;5100341;28;19923;-81
2022/07/11 09:07:07;;;;;;;;;;;21.30;99.90;;;;;;5096743;28;19919;-80
2022/07/11 09:09:35;;;;;;;;;;;21.30;99.90;;;;;;5097947;28;19958;-85
2022/07/11 09:12:10;;;;;;;;;;;21.40;99.90;;;;;;5099183;28;19931;-82
2022/07/11 09:14:37;;;;;;;;;;;21.70;99.90;;;;;;5099317;28;19942;-85
2022/07/11 09:17:06;;;;;;;;;;;22.10;99.90;;;;;;5096805;28;20033;-82
2022/07/11 09:19:39;;;;;;;;;;;22.50;99.90;;;;;;5091196;28;19920;-80
2022/07/11 09:27:47;;;;;;;;;;;23.20;99.90;;;;;;5093001;28;19916;-80
2022/07/11 09:30:20;;;;;;;;;;;23.20;99.90;;;;;;5127197;27;19928;-83
2022/07/11 09:33:03;;;;;;;;;;;23.10;99.90;;;;;;5095289;28;19920;-83
2022/07/11 09:35:33;;;;;;;;;;;23.10;99.90;;;;;;5080937;28;20515;-81
2022/07/11 09:38:04;;;;;;;;;;;23.10;99.90;;;;;;5094185;28;19924;-81
2022/07/11 09:40:31;;;;;;;;;;;23.00;99.90;;;;;;5082329;28;19920;-82
2022/07/11 09:43:00;;;;;;;;;;;22.90;99.90;;;;;;5087093;28;19939;-80
2022/07/11 09:45:27;;;;;;;;;;;22.80;99.90;;;;;;5093917;28;20348;-81
2022/07/11 09:47:55;;;;;;;;;;;22.70;99.90;;;;;;5093728;28;20330;-82
2022/07/11 09:50:24;;;;;;;;;;;22.60;99.90;;;;;;5086648;28;20042;-82
2022/07/11 09:53:06;;;;;;;;;;;22.50;99.90;;;;;;5094788;28;19920;-86
2022/07/11 09:55:34;;;;;;;;;;;22.60;99.90;;;;;;5090974;28;19924;-80
2022/07/11 09:58:04;;;;;;;;;;;22.60;99.90;;;;;;5083412;28;19920;-80
2022/07/11 10:00:31;;;;;;;;;;;22.50;99.90;;;;;;5094884;28;19920;-80
2022/07/11 10:02:59;;;;;;;;;;;22.50;99.90;;;;;;5081533;28;20007;-80
2022/07/11 10:05:26;;;;;;;;;;;22.60;99.90;;;;;;5090538;28;19930;-81
2022/07/11 10:07:53;;;;;;;;;;;22.60;99.90;;;;;;5105542;28;19974;-80
2022/07/11 10:10:21;;;;;;;;;;;22.60;99.90;;;;;;5096061;28;20034;-83
2022/07/11 10:12:48;;;;;;;;;;;22.70;99.90;;;;;;5095197;28;20003;-82
2022/07/11 10:15:17;;;;;;;;;;;22.70;99.90;;;;;;5085579;28;20015;-85
2022/07/11 10:17:49;;;;;;;;;;;22.60;99.90;;;;;;5088165;28;20474;-85
2022/07/11 10:20:21;;;;;;;;;;;22.60;99.90;;;;;;5090548;28;20298;-84
2022/07/11 10:22:51;;;;;;;;;;;22.70;99.90;;;;;;5093916;28;20368;-84
2022/07/11 10:25:21;;;;;;;;;;;22.70;99.90;;;;;;5092638;28;19924;-85
2022/07/11 10:27:59;;;;;;;;;;;22.70;99.90;;;;;;5090545;28;19967;-85
2022/07/11 10:30:46;;;;;;;;;;;22.80;99.90;;;;;;5084956;28;19962;-85
2022/07/11 10:33:13;;;;;;;;;;;22.80;99.90;;;;;;5091522;28;19923;-85
2022/07/11 10:35:44;;;;;;;;;;;22.90;99.90;;;;;;5083051;28;19920;-86
2022/07/11 10:38:11;;;;;;;;;;;23.30;99.90;;;;;;5088172;28;19928;-82
2022/07/11 10:40:42;;;;;;;;;;;23.70;99.90;;;;;;5087486;28;19924;-82
2022/07/11 10:43:10;;;;;;;;;;;24.10;99.90;;;;;;5087890;28;19943;-83
2022/07/11 10:45:56;;;;;;;;;;;24.40;99.90;;;;;;5088328;28;19950;-82
2022/07/11 10:48:23;;;;;;;;;;;24.90;99.90;;;;;;5091967;28;20171;-82
2022/07/11 10:50:54;;;;;;;;;;;24.80;99.90;;;;;;5084870;28;19920;-82
2022/07/11 10:53:22;;;;;;;;;;;24.90;99.90;;;;;;5089185;28;19927;-83
2022/07/11 10:56:01;;;;;;;;;;;24.70;99.90;;;;;;5086174;28;19981;-83
2022/07/11 10:58:31;;;;;;;;;;;24.60;99.90;;;;;;5082455;28;19920;-82
2022/07/11 11:01:11;;;;;;;;;;;24.50;99.90;;;;;;5093128;28;20015;-82
2022/07/11 11:03:38;;;;;;;;;;;24.40;99.90;;;;;;5083295;28;19920;-81
2022/07/11 11:06:06;;;;;;;;;;;24.00;99.90;;;;;;5085484;28;19931;-82
2022/07/11 11:08:44;;;;;;;;;;;24.30;99.90;;;;;;5082113;28;20038;-82
2022/07/11 11:11:35;;;;;;;;;;;23.90;99.90;;;;;;5081988;28;20528;-82
2022/07/11 11:14:20;;;;;;;;;;;24.00;99.90;;;;;;5080164;28;19924;-83
2022/07/11 11:16:47;;;;;;;;;;;24.00;99.90;;;;;;5080976;28;19920;-82
2022/07/11 11:19:33;;;;;;;;;;;24.10;99.90;;;;;;5084437;28;19932;-82
2022/07/11 11:22:01;;;;;;;;;;;24.10;99.90;;;;;;5081598;28;20382;-81
2022/07/11 11:24:28;;;;;;;;;;;24.10;99.90;;;;;;5083311;28;19924;-82
2022/07/11 11:26:59;;;;;;;;;;;25.00;99.90;;;;;;5083919;28;19981;-81
2022/07/11 11:29:28;;;;;;;;;;;23.90;99.90;;;;;;5080688;28;20002;-82
2022/07/11 11:31:57;;;;;;;;;;;23.60;99.90;;;;;;5073616;28;20276;-82
2022/07/11 11:34:25;;;;;;;;;;;23.40;99.90;;;;;;5079870;28;19931;-82
2022/07/11 11:36:56;;;;;;;;;;;23.30;99.90;;;;;;5074180;28;19952;-82
2022/07/11 11:39:24;;;;;;;;;;;23.30;99.90;;;;;;5078820;28;20379;-82
2022/07/11 11:41:51;;;;;;;;;;;23.30;99.90;;;;;;5076498;28;20027;-81
2022/07/11 11:44:21;;;;;;;;;;;23.30;99.90;;;;;;5080487;28;19921;-81
2022/07/11 11:46:52;;;;;;;;;;;23.30;99.90;;;;;;5083328;28;20028;-81
2022/07/11 11:49:19;;;;;;;;;;;23.50;99.90;;;;;;5043427;28;1150985;-81
2022/07/11 11:51:47;;;;;;;;;;;23.80;99.90;;;;;;5077352;28;19924;-82
2022/07/11 11:54:21;;;;;;;;;;;23.90;99.90;;;;;;5094535;28;19927;-81
2022/07/11 11:56:49;;;;;;;;;;;23.90;99.90;;;;;;5079929;28;19924;-82
2022/07/11 11:59:17;;;;;;;;;;;24.00;99.90;;;;;;5084472;28;19932;-82
2022/07/11 12:01:45;;;;;;;;;;;24.10;99.90;;;;;;5101271;28;19923;-82
2022/07/11 12:04:14;;;;;;;;;;;24.00;99.90;;;;;;5079259;28;19924;-82
2022/07/11 12:06:43;;;;;;;;;;;23.90;99.90;;;;;;5083774;28;19956;-81
2022/07/11 12:09:13;;;;;;;;;;;23.90;99.90;;;;;;5086466;28;19959;-82
2022/07/11 12:11:40;;;;;;;;;;;23.80;99.90;;;;;;5089607;28;19924;-82
2022/07/11 12:14:08;;;;;;;;;;;23.80;99.90;;;;;;5083966;28;19942;-82
2022/07/11 12:16:49;;;;;;;;;;;23.90;99.90;;;;;;5089433;28;20020;-81
2022/07/11 12:19:19;;;;;;;;;;;24.40;99.90;;;;;;5089775;28;19976;-81
2022/07/11 12:21:47;;;;;;;;;;;24.40;99.90;;;;;;5104236;28;19985;-81
2022/07/11 12:24:18;;;;;;;;;;;24.50;99.90;;;;;;5094166;28;20099;-81
2022/07/11 12:26:46;;;;;;;;;;;24.80;99.90;;;;;;5102116;28;19923;-82
2022/07/11 12:29:16;;;;;;;;;;;25.10;99.90;;;;;;5097036;28;19942;-80
2022/07/11 12:31:47;;;;;;;;;;;25.20;99.90;;;;;;5099430;28;20217;-83
2022/07/11 12:34:14;;;;;;;;;;;25.40;99.90;;;;;;5105106;28;19920;-82
2022/07/11 12:36:42;;;;;;;;;;;25.70;99.90;;;;;;5094819;28;19984;-81
2022/07/11 12:39:10;;;;;;;;;;;25.50;99.90;;;;;;5090542;28;20335;-81
2022/07/11 12:41:37;;;;;;;;;;;25.50;99.90;;;;;;5086326;28;19948;-80
2022/07/11 12:46:49;;;;;;;;;;;25.60;99.90;;;;;;5092684;28;20043;-82
2022/07/11 12:49:16;;;;;;;;;;;25.60;99.90;;;;;;5105522;28;19946;-83
2022/07/11 12:51:46;;;;;;;;;;;25.80;99.90;;;;;;5106148;28;19920;-82
2022/07/11 12:54:14;;;;;;;;;;;25.90;99.90;;;;;;5086656;28;20403;-83
2022/07/11 12:56:41;;;;;;;;;;;25.90;99.90;;;;;;5087404;28;19934;-82
2022/07/11 12:59:19;;;;;;;;;;;25.90;99.90;;;;;;5092475;28;19983;-82
2022/07/11 13:01:54;;;;;;;;;;;25.90;99.90;;;;;;5105701;28;19927;-82
2022/07/11 13:04:32;;;;;;;;;;;25.90;99.90;;;;;;5087339;28;20019;-83
2022/07/11 13:10:03;;;;;;;;;;;25.80;99.90;;;;;;5103648;28;19928;-83
2022/07/11 13:12:30;;;;;;;;;;;25.80;99.90;;;;;;5093339;28;19920;-83
2022/07/11 13:15:10;;;;;;;;;;;25.90;99.90;;;;;;5098535;28;19924;-82
2022/07/11 13:17:39;;;;;;;;;;;26.00;99.90;;;;;;5092096;28;19924;-81
2022/07/11 13:20:07;;;;;;;;;;;26.00;99.90;;;;;;5096804;28;19985;-83
2022/07/11 13:22:35;;;;;;;;;;;25.90;99.90;;;;;;5096014;28;19946;-82
2022/07/11 13:25:03;;;;;;;;;;;25.70;99.90;;;;;;5089431;28;19932;-81
2022/07/11 13:27:30;;;;;;;;;;;25.40;99.90;;;;;;5094834;28;19946;-82
2022/07/11 13:29:58;;;;;;;;;;;25.20;99.90;;;;;;5097315;28;19920;-82
2022/07/11 13:32:26;;;;;;;;;;;25.10;99.90;;;;;;5093767;28;20291;-82
2022/07/11 13:34:53;;;;;;;;;;;25.00;99.90;;;;;;5093053;28;19985;-81
2022/07/11 13:37:20;;;;;;;;;;;25.00;99.90;;;;;;5086468;28;19932;-82
2022/07/11 13:39:49;;;;;;;;;;;24.80;99.90;;;;;;5082056;28;20015;-83
2022/07/11 13:42:16;;;;;;;;;;;24.70;99.90;;;;;;5093478;28;19924;-81
2022/07/11 13:44:43;;;;;;;;;;;;;;;;;;5093561;28;20023;-83
2022/07/11 13:47:11;;;;;;;;;;;24.90;99.90;;;;;;5096452;28;19920;-84
2022/07/11 13:49:38;;;;;;;;;;;25.10;99.90;;;;;;5096345;28;19967;-83
2022/07/11 13:52:06;;;;;;;;;;;25.20;99.90;;;;;;5107799;28;19951;-82
2022/07/11 13:54:33;;;;;;;;;;;25.20;99.90;;;;;;5110085;28;19981;-83
2022/07/11 13:57:01;;;;;;;;;;;25.30;99.90;;;;;;5087729;28;19924;-83
2022/07/11 13:59:28;;;;;;;;;;;25.50;99.90;;;;;;5091790;28;19920;-83
2022/07/11 14:01:55;;;;;;;;;;;25.50;99.90;;;;;;5095003;28;20018;-83
2022/07/11 14:04:25;;;;;;;;;;;25.60;99.90;;;;;;5096795;28;19924;-82
2022/07/11 14:06:53;;;;;;;;;;;25.60;99.90;;;;;;5094945;28;20038;-83
2022/07/11 14:09:19;;;;;;;;;;;25.70;99.90;;;;;;5095409;28;19928;-83
2022/07/11 14:11:52;;;;;;;;;;;25.80;99.90;;;;;;5094095;28;19931;-83
2022/07/11 14:14:21;;;;;;;;;;;25.60;99.90;;;;;;5096122;28;19920;-83
2022/07/11 14:16:48;;;;;;;;;;;25.40;99.90;;;;;;5092585;28;19924;-80
2022/07/11 14:19:17;;;;;;;;;;;25.40;99.90;;;;;;5089887;28;19928;-83
2022/07/11 14:21:45;;;;;;;;;;;25.50;99.90;;;;;;5102086;28;19935;-82
2022/07/11 14:24:12;;;;;;;;;;;25.80;99.90;;;;;;5087677;28;19924;-83
2022/07/11 14:26:39;;;;;;;;;;;26.00;99.90;;;;;;5088207;28;19928;-82
2022/07/11 14:29:06;;;;;;;;;;;26.30;99.90;;;;;;5089540;28;20023;-81
2022/07/11 14:31:35;;;;;;;;;;;26.50;99.90;;;;;;5086378;28;20003;-81
2022/07/11 14:34:02;;;;;;;;;;;26.60;99.90;;;;;;5087165;28;19946;-79
2022/07/11 14:36:29;;;;;;;;;;;26.70;99.90;;;;;;5075940;28;20398;-79
2022/07/11 14:38:56;;;;;;;;;;;26.70;99.90;;;;;;5079276;28;19973;-81
2022/07/11 14:41:23;;;;;;;;;;;26.70;99.90;;;;;;5072685;28;19943;-79